KCGS

College Park Airport

College Park, Maryland, USA
METAR KCGS 161354Z AUTO 00000KT 10SM CLR 27/21 A3011 RMK AO1 T02690211
Observed Flight Rules
Aug-16 @ 13:54 UTC (22 minutes ago) Visual Flight Rules
Visibility Clouds
10 miles
  • Clear skies
Temperatures Readings
Current 27°C / 81°F
Dewpoint 21°C / 70°F
Humidity 70%
Altimeter 30.11" Hg
Pressure 1020 hPa
Elevation 15
METAR KCGS 161354Z AUTO 00000KT 10SM CLR 27/21 A3011 RMK AO1 T02690211
Observed Flight Rules
Aug-16 @ 13:54 UTC
(22 minutes ago)
VFR
Clouds
  • Clear skies
Temperature Dewpoint
27°C / 81°F 21°C / 70°F
Humidity Altimeter Pressure
70% 30.11" Hg 1020 hPa